sensor_id;sensor_type;location;lat;lon;timestamp;P1;durP1;ratioP1;P2;durP2;ratioP2
66727;SDS011;53641;44.274;19.890;2022-08-07T00:00:57;8.25;;;1.80;;
66727;SDS011;53641;44.274;19.890;2022-08-07T00:03:23;6.07;;;1.58;;
66727;SDS011;53641;44.274;19.890;2022-08-07T00:05:50;3.90;;;1.40;;
66727;SDS011;53641;44.274;19.890;2022-08-07T00:08:19;9.20;;;1.50;;
66727;SDS011;53641;44.274;19.890;2022-08-07T00:10:47;6.47;;;1.40;;
66727;SDS011;53641;44.274;19.890;2022-08-07T00:13:13;4.10;;;1.42;;
66727;SDS011;53641;44.274;19.890;2022-08-07T00:15:39;6.78;;;1.90;;
66727;SDS011;53641;44.274;19.890;2022-08-07T00:18:05;8.63;;;1.23;;
66727;SDS011;53641;44.274;19.890;2022-08-07T00:20:33;6.30;;;1.48;;
66727;SDS011;53641;44.274;19.890;2022-08-07T00:22:59;4.70;;;1.25;;
66727;SDS011;53641;44.274;19.890;2022-08-07T00:25:25;5.70;;;1.42;;
66727;SDS011;53641;44.274;19.890;2022-08-07T00:27:51;10.73;;;1.70;;
66727;SDS011;53641;44.274;19.890;2022-08-07T00:30:17;5.30;;;1.30;;
66727;SDS011;53641;44.274;19.890;2022-08-07T00:32:46;12.50;;;1.42;;
66727;SDS011;53641;44.274;19.890;2022-08-07T00:35:12;4.70;;;1.25;;
66727;SDS011;53641;44.274;19.890;2022-08-07T00:37:37;3.85;;;1.30;;
66727;SDS011;53641;44.274;19.890;2022-08-07T00:40:03;4.95;;;1.15;;
66727;SDS011;53641;44.274;19.890;2022-08-07T00:42:31;5.55;;;1.17;;
66727;SDS011;53641;44.274;19.890;2022-08-07T00:44:57;5.47;;;1.63;;
66727;SDS011;53641;44.274;19.890;2022-08-07T00:47:23;2.47;;;1.27;;
66727;SDS011;53641;44.274;19.890;2022-08-07T00:49:48;3.28;;;1.20;;
66727;SDS011;53641;44.274;19.890;2022-08-07T00:52:14;8.00;;;1.35;;
66727;SDS011;53641;44.274;19.890;2022-08-07T00:54:40;12.20;;;2.00;;
66727;SDS011;53641;44.274;19.890;2022-08-07T00:57:06;3.30;;;1.63;;
66727;SDS011;53641;44.274;19.890;2022-08-07T00:59:34;7.38;;;1.10;;
66727;SDS011;53641;44.274;19.890;2022-08-07T01:02:02;7.22;;;1.90;;
66727;SDS011;53641;44.274;19.890;2022-08-07T01:04:29;3.40;;;1.20;;
66727;SDS011;53641;44.274;19.890;2022-08-07T01:06:55;5.32;;;1.40;;
66727;SDS011;53641;44.274;19.890;2022-08-07T01:09:21;3.58;;;1.35;;
66727;SDS011;53641;44.274;19.890;2022-08-07T01:11:49;6.80;;;1.40;;
66727;SDS011;53641;44.274;19.890;2022-08-07T01:14:15;7.53;;;1.83;;
66727;SDS011;53641;44.274;19.890;2022-08-07T01:16:41;3.03;;;1.30;;
66727;SDS011;53641;44.274;19.890;2022-08-07T01:19:07;8.63;;;1.65;;
66727;SDS011;53641;44.274;19.890;2022-08-07T01:21:33;3.38;;;1.48;;
66727;SDS011;53641;44.274;19.890;2022-08-07T01:23:59;3.40;;;1.30;;
66727;SDS011;53641;44.274;19.890;2022-08-07T01:26:26;7.03;;;1.20;;
66727;SDS011;53641;44.274;19.890;2022-08-07T01:28:52;4.97;;;1.40;;
66727;SDS011;53641;44.274;19.890;2022-08-07T01:31:19;3.47;;;1.33;;
66727;SDS011;53641;44.274;19.890;2022-08-07T01:33:51;10.65;;;1.73;;
66727;SDS011;53641;44.274;19.890;2022-08-07T01:36:17;9.07;;;1.88;;
66727;SDS011;53641;44.274;19.890;2022-08-07T01:38:43;2.78;;;1.30;;
66727;SDS011;53641;44.274;19.890;2022-08-07T01:41:09;3.67;;;1.33;;
66727;SDS011;53641;44.274;19.890;2022-08-07T01:43:36;4.80;;;1.75;;
66727;SDS011;53641;44.274;19.890;2022-08-07T01:46:02;3.85;;;1.13;;
66727;SDS011;53641;44.274;19.890;2022-08-07T01:51:16;3.15;;;1.10;;
66727;SDS011;53641;44.274;19.890;2022-08-07T01:53:45;3.50;;;1.35;;
66727;SDS011;53641;44.274;19.890;2022-08-07T01:56:14;3.45;;;1.35;;
66727;SDS011;53641;44.274;19.890;2022-08-07T01:58:48;2.93;;;1.30;;
66727;SDS011;53641;44.274;19.890;2022-08-07T02:01:19;11.55;;;1.50;;
66727;SDS011;53641;44.274;19.890;2022-08-07T02:03:48;8.55;;;1.33;;
66727;SDS011;53641;44.274;19.890;2022-08-07T02:06:20;3.17;;;1.33;;
66727;SDS011;53641;44.274;19.890;2022-08-07T02:08:49;2.33;;;1.20;;
66727;SDS011;53641;44.274;19.890;2022-08-07T02:11:16;8.23;;;2.20;;
66727;SDS011;53641;44.274;19.890;2022-08-07T02:13:41;8.00;;;1.38;;
66727;SDS011;53641;44.274;19.890;2022-08-07T02:16:09;3.10;;;1.10;;
66727;SDS011;53641;44.274;19.890;2022-08-07T02:18:36;6.07;;;1.30;;
66727;SDS011;53641;44.274;19.890;2022-08-07T02:21:04;4.25;;;1.20;;
66727;SDS011;53641;44.274;19.890;2022-08-07T02:23:32;4.18;;;2.10;;
66727;SDS011;53641;44.274;19.890;2022-08-07T02:26:02;2.65;;;1.50;;
66727;SDS011;53641;44.274;19.890;2022-08-07T02:28:28;9.00;;;1.23;;
66727;SDS011;53641;44.274;19.890;2022-08-07T02:30:56;3.22;;;1.20;;
66727;SDS011;53641;44.274;19.890;2022-08-07T02:33:23;4.18;;;1.45;;
66727;SDS011;53641;44.274;19.890;2022-08-07T02:35:50;11.82;;;1.75;;
66727;SDS011;53641;44.274;19.890;2022-08-07T02:38:17;3.10;;;1.20;;
66727;SDS011;53641;44.274;19.890;2022-08-07T02:40:45;3.15;;;1.40;;
66727;SDS011;53641;44.274;19.890;2022-08-07T02:43:12;8.25;;;1.40;;
66727;SDS011;53641;44.274;19.890;2022-08-07T02:45:39;2.10;;;1.17;;
66727;SDS011;53641;44.274;19.890;2022-08-07T02:48:07;5.75;;;1.50;;
66727;SDS011;53641;44.274;19.890;2022-08-07T02:50:34;2.70;;;1.35;;
66727;SDS011;53641;44.274;19.890;2022-08-07T02:53:07;4.63;;;1.20;;
66727;SDS011;53641;44.274;19.890;2022-08-07T02:55:36;4.38;;;1.50;;
66727;SDS011;53641;44.274;19.890;2022-08-07T02:58:10;3.55;;;1.20;;
66727;SDS011;53641;44.274;19.890;2022-08-07T03:00:37;3.83;;;1.20;;
66727;SDS011;53641;44.274;19.890;2022-08-07T03:03:06;11.23;;;1.52;;
66727;SDS011;53641;44.274;19.890;2022-08-07T03:05:33;3.95;;;1.40;;
66727;SDS011;53641;44.274;19.890;2022-08-07T03:08:01;2.53;;;1.30;;
66727;SDS011;53641;44.274;19.890;2022-08-07T03:10:28;6.32;;;1.45;;
66727;SDS011;53641;44.274;19.890;2022-08-07T03:12:55;3.13;;;1.13;;
66727;SDS011;53641;44.274;19.890;2022-08-07T03:15:21;2.95;;;1.40;;
66727;SDS011;53641;44.274;19.890;2022-08-07T03:17:47;3.30;;;1.30;;
66727;SDS011;53641;44.274;19.890;2022-08-07T03:20:13;9.65;;;1.65;;
66727;SDS011;53641;44.274;19.890;2022-08-07T03:22:40;9.85;;;2.10;;
66727;SDS011;53641;44.274;19.890;2022-08-07T03:25:07;3.72;;;1.27;;
66727;SDS011;53641;44.274;19.890;2022-08-07T03:27:34;7.75;;;1.65;;
66727;SDS011;53641;44.274;19.890;2022-08-07T03:30:00;3.65;;;1.58;;
66727;SDS011;53641;44.274;19.890;2022-08-07T03:32:31;2.33;;;1.30;;
66727;SDS011;53641;44.274;19.890;2022-08-07T03:35:02;3.45;;;1.52;;
66727;SDS011;53641;44.274;19.890;2022-08-07T03:37:32;2.53;;;1.15;;
66727;SDS011;53641;44.274;19.890;2022-08-07T03:40:00;3.85;;;1.10;;
66727;SDS011;53641;44.274;19.890;2022-08-07T03:42:27;8.50;;;1.50;;
66727;SDS011;53641;44.274;19.890;2022-08-07T03:44:53;5.65;;;1.40;;
66727;SDS011;53641;44.274;19.890;2022-08-07T03:47:20;3.65;;;1.27;;
66727;SDS011;53641;44.274;19.890;2022-08-07T03:49:46;4.45;;;1.30;;
66727;SDS011;53641;44.274;19.890;2022-08-07T03:52:12;2.22;;;1.25;;
66727;SDS011;53641;44.274;19.890;2022-08-07T03:54:39;6.93;;;1.58;;
66727;SDS011;53641;44.274;19.890;2022-08-07T03:57:05;7.07;;;1.25;;
66727;SDS011;53641;44.274;19.890;2022-08-07T03:59:31;3.88;;;1.30;;
66727;SDS011;53641;44.274;19.890;2022-08-07T04:01:58;3.80;;;1.60;;
66727;SDS011;53641;44.274;19.890;2022-08-07T04:04:24;4.10;;;1.83;;
66727;SDS011;53641;44.274;19.890;2022-08-07T04:06:50;2.13;;;1.23;;
66727;SDS011;53641;44.274;19.890;2022-08-07T04:09:16;2.90;;;1.50;;
66727;SDS011;53641;44.274;19.890;2022-08-07T04:11:44;4.47;;;1.50;;
66727;SDS011;53641;44.274;19.890;2022-08-07T04:14:10;2.60;;;1.38;;
66727;SDS011;53641;44.274;19.890;2022-08-07T04:16:36;3.05;;;1.10;;
66727;SDS011;53641;44.274;19.890;2022-08-07T04:19:03;7.28;;;1.23;;
66727;SDS011;53641;44.274;19.890;2022-08-07T04:21:29;2.80;;;1.40;;
66727;SDS011;53641;44.274;19.890;2022-08-07T04:23:55;4.32;;;1.77;;
66727;SDS011;53641;44.274;19.890;2022-08-07T04:26:22;3.25;;;1.40;;
66727;SDS011;53641;44.274;19.890;2022-08-07T04:28:48;3.55;;;1.35;;
66727;SDS011;53641;44.274;19.890;2022-08-07T04:31:14;4.00;;;1.25;;
66727;SDS011;53641;44.274;19.890;2022-08-07T04:33:40;2.03;;;1.23;;
66727;SDS011;53641;44.274;19.890;2022-08-07T04:36:07;3.70;;;1.40;;
66727;SDS011;53641;44.274;19.890;2022-08-07T04:38:33;5.82;;;1.35;;
66727;SDS011;53641;44.274;19.890;2022-08-07T04:40:59;2.55;;;1.33;;
66727;SDS011;53641;44.274;19.890;2022-08-07T04:43:25;4.53;;;1.23;;
66727;SDS011;53641;44.274;19.890;2022-08-07T04:46:01;10.68;;;1.58;;
66727;SDS011;53641;44.274;19.890;2022-08-07T04:49:24;3.35;;;1.20;;
66727;SDS011;53641;44.274;19.890;2022-08-07T04:51:33;2.40;;;1.30;;
66727;SDS011;53641;44.274;19.890;2022-08-07T04:55:28;2.13;;;1.40;;
66727;SDS011;53641;44.274;19.890;2022-08-07T04:57:00;2.95;;;1.45;;
66727;SDS011;53641;44.274;19.890;2022-08-07T04:59:32;2.42;;;1.60;;
66727;SDS011;53641;44.274;19.890;2022-08-07T05:02:03;4.30;;;1.95;;
66727;SDS011;53641;44.274;19.890;2022-08-07T05:04:39;3.58;;;1.48;;
66727;SDS011;53641;44.274;19.890;2022-08-07T05:07:24;4.25;;;1.70;;
66727;SDS011;53641;44.274;19.890;2022-08-07T05:10:11;4.80;;;1.38;;
66727;SDS011;53641;44.274;19.890;2022-08-07T05:12:41;6.60;;;1.40;;
66727;SDS011;53641;44.274;19.890;2022-08-07T05:15:17;2.80;;;1.40;;
66727;SDS011;53641;44.274;19.890;2022-08-07T05:17:53;4.40;;;1.52;;
66727;SDS011;53641;44.274;19.890;2022-08-07T05:22:51;3.95;;;1.55;;
66727;SDS011;53641;44.274;19.890;2022-08-07T05:25:21;2.50;;;1.40;;
66727;SDS011;53641;44.274;19.890;2022-08-07T05:27:49;4.35;;;1.50;;
66727;SDS011;53641;44.274;19.890;2022-08-07T05:30:15;1.77;;;1.48;;
66727;SDS011;53641;44.274;19.890;2022-08-07T05:32:42;3.08;;;1.67;;
66727;SDS011;53641;44.274;19.890;2022-08-07T05:35:11;3.53;;;1.50;;
66727;SDS011;53641;44.274;19.890;2022-08-07T05:37:39;3.83;;;1.40;;
66727;SDS011;53641;44.274;19.890;2022-08-07T05:40:06;4.93;;;1.80;;
66727;SDS011;53641;44.274;19.890;2022-08-07T05:42:34;2.00;;;1.45;;
66727;SDS011;53641;44.274;19.890;2022-08-07T05:45:02;7.78;;;1.50;;
66727;SDS011;53641;44.274;19.890;2022-08-07T05:47:30;11.48;;;1.88;;
66727;SDS011;53641;44.274;19.890;2022-08-07T05:49:56;4.18;;;1.75;;
66727;SDS011;53641;44.274;19.890;2022-08-07T05:52:22;5.78;;;1.65;;
66727;SDS011;53641;44.274;19.890;2022-08-07T05:54:50;2.50;;;1.45;;
66727;SDS011;53641;44.274;19.890;2022-08-07T05:57:15;2.08;;;1.63;;
66727;SDS011;53641;44.274;19.890;2022-08-07T05:59:42;3.08;;;1.60;;
66727;SDS011;53641;44.274;19.890;2022-08-07T06:02:12;3.20;;;1.80;;
66727;SDS011;53641;44.274;19.890;2022-08-07T06:04:40;1.95;;;1.58;;
66727;SDS011;53641;44.274;19.890;2022-08-07T06:07:11;3.92;;;1.90;;
66727;SDS011;53641;44.274;19.890;2022-08-07T06:09:37;4.38;;;1.80;;
66727;SDS011;53641;44.274;19.890;2022-08-07T06:12:04;5.00;;;1.60;;
66727;SDS011;53641;44.274;19.890;2022-08-07T06:14:31;3.40;;;1.60;;
66727;SDS011;53641;44.274;19.890;2022-08-07T06:16:57;5.03;;;1.67;;
66727;SDS011;53641;44.274;19.890;2022-08-07T06:19:23;5.00;;;2.10;;
66727;SDS011;53641;44.274;19.890;2022-08-07T06:21:50;2.88;;;1.60;;
66727;SDS011;53641;44.274;19.890;2022-08-07T06:24:17;2.10;;;1.58;;
66727;SDS011;53641;44.274;19.890;2022-08-07T06:26:43;4.20;;;1.85;;
66727;SDS011;53641;44.274;19.890;2022-08-07T06:29:09;5.68;;;1.52;;
66727;SDS011;53641;44.274;19.890;2022-08-07T06:31:35;3.58;;;1.52;;
66727;SDS011;53641;44.274;19.890;2022-08-07T06:34:01;1.98;;;1.60;;
66727;SDS011;53641;44.274;19.890;2022-08-07T06:36:27;2.33;;;1.50;;
66727;SDS011;53641;44.274;19.890;2022-08-07T06:38:54;2.08;;;1.38;;
66727;SDS011;53641;44.274;19.890;2022-08-07T06:41:21;4.70;;;1.60;;
66727;SDS011;53641;44.274;19.890;2022-08-07T06:43:57;2.58;;;1.70;;
66727;SDS011;53641;44.274;19.890;2022-08-07T06:46:24;2.85;;;1.65;;
66727;SDS011;53641;44.274;19.890;2022-08-07T06:48:51;4.35;;;1.73;;
66727;SDS011;53641;44.274;19.890;2022-08-07T06:51:17;3.58;;;1.65;;
66727;SDS011;53641;44.274;19.890;2022-08-07T06:53:48;6.57;;;1.80;;
66727;SDS011;53641;44.274;19.890;2022-08-07T06:56:14;6.10;;;1.88;;
66727;SDS011;53641;44.274;19.890;2022-08-07T06:58:43;2.75;;;1.77;;
66727;SDS011;53641;44.274;19.890;2022-08-07T07:01:11;5.35;;;1.95;;
66727;SDS011;53641;44.274;19.890;2022-08-07T07:03:38;5.40;;;1.55;;
66727;SDS011;53641;44.274;19.890;2022-08-07T07:06:06;4.90;;;2.25;;
66727;SDS011;53641;44.274;19.890;2022-08-07T07:08:33;2.85;;;1.73;;
66727;SDS011;53641;44.274;19.890;2022-08-07T07:10:59;3.25;;;1.95;;
66727;SDS011;53641;44.274;19.890;2022-08-07T07:13:30;3.20;;;1.63;;
66727;SDS011;53641;44.274;19.890;2022-08-07T07:16:01;4.57;;;1.90;;
66727;SDS011;53641;44.274;19.890;2022-08-07T07:18:37;3.25;;;1.67;;
66727;SDS011;53641;44.274;19.890;2022-08-07T07:21:07;4.47;;;1.52;;
66727;SDS011;53641;44.274;19.890;2022-08-07T07:23:38;6.40;;;2.38;;
66727;SDS011;53641;44.274;19.890;2022-08-07T07:26:06;4.78;;;1.60;;
66727;SDS011;53641;44.274;19.890;2022-08-07T07:28:40;5.53;;;2.10;;
66727;SDS011;53641;44.274;19.890;2022-08-07T07:31:11;2.65;;;1.65;;
66727;SDS011;53641;44.274;19.890;2022-08-07T07:33:42;4.25;;;1.67;;
66727;SDS011;53641;44.274;19.890;2022-08-07T07:36:10;5.45;;;1.77;;
66727;SDS011;53641;44.274;19.890;2022-08-07T07:38:36;2.47;;;1.75;;
66727;SDS011;53641;44.274;19.890;2022-08-07T07:41:05;3.97;;;1.95;;
66727;SDS011;53641;44.274;19.890;2022-08-07T07:43:33;5.82;;;1.67;;
66727;SDS011;53641;44.274;19.890;2022-08-07T07:46:03;4.47;;;1.98;;
66727;SDS011;53641;44.274;19.890;2022-08-07T07:48:30;4.97;;;1.77;;
66727;SDS011;53641;44.274;19.890;2022-08-07T07:50:57;2.78;;;1.75;;
66727;SDS011;53641;44.274;19.890;2022-08-07T07:53:24;4.50;;;1.67;;
66727;SDS011;53641;44.274;19.890;2022-08-07T07:55:51;3.50;;;1.95;;
66727;SDS011;53641;44.274;19.890;2022-08-07T07:58:19;2.50;;;1.90;;
66727;SDS011;53641;44.274;19.890;2022-08-07T08:00:45;3.00;;;1.73;;
66727;SDS011;53641;44.274;19.890;2022-08-07T08:03:14;3.90;;;1.90;;
66727;SDS011;53641;44.274;19.890;2022-08-07T08:05:43;5.75;;;1.85;;
66727;SDS011;53641;44.274;19.890;2022-08-07T08:08:09;2.20;;;1.42;;
66727;SDS011;53641;44.274;19.890;2022-08-07T08:10:37;4.60;;;1.70;;
66727;SDS011;53641;44.274;19.890;2022-08-07T08:13:04;3.85;;;1.90;;
66727;SDS011;53641;44.274;19.890;2022-08-07T08:15:33;3.90;;;1.83;;
66727;SDS011;53641;44.274;19.890;2022-08-07T08:18:02;4.78;;;1.70;;
66727;SDS011;53641;44.274;19.890;2022-08-07T08:20:30;3.97;;;2.10;;
66727;SDS011;53641;44.274;19.890;2022-08-07T08:22:58;4.00;;;2.00;;
66727;SDS011;53641;44.274;19.890;2022-08-07T08:25:45;6.65;;;2.05;;
66727;SDS011;53641;44.274;19.890;2022-08-07T08:28:37;2.50;;;1.70;;
66727;SDS011;53641;44.274;19.890;2022-08-07T08:31:08;4.45;;;2.00;;
66727;SDS011;53641;44.274;19.890;2022-08-07T08:33:37;3.65;;;1.80;;
66727;SDS011;53641;44.274;19.890;2022-08-07T08:36:05;2.67;;;1.95;;
66727;SDS011;53641;44.274;19.890;2022-08-07T08:38:35;2.97;;;1.80;;
66727;SDS011;53641;44.274;19.890;2022-08-07T08:41:10;3.72;;;2.03;;
66727;SDS011;53641;44.274;19.890;2022-08-07T08:44:00;6.00;;;2.55;;
66727;SDS011;53641;44.274;19.890;2022-08-07T08:47:07;6.18;;;2.38;;
66727;SDS011;53641;44.274;19.890;2022-08-07T08:49:38;4.43;;;2.35;;
66727;SDS011;53641;44.274;19.890;2022-08-07T08:52:14;6.20;;;1.95;;
66727;SDS011;53641;44.274;19.890;2022-08-07T08:54:46;7.60;;;1.73;;
66727;SDS011;53641;44.274;19.890;2022-08-07T08:58:18;3.65;;;2.20;;
66727;SDS011;53641;44.274;19.890;2022-08-07T09:00:13;2.58;;;1.70;;
66727;SDS011;53641;44.274;19.890;2022-08-07T09:02:55;6.50;;;1.90;;
66727;SDS011;53641;44.274;19.890;2022-08-07T09:05:32;2.50;;;1.40;;
66727;SDS011;53641;44.274;19.890;2022-08-07T09:08:10;2.78;;;2.22;;
66727;SDS011;53641;44.274;19.890;2022-08-07T09:10:45;2.95;;;2.28;;
66727;SDS011;53641;44.274;19.890;2022-08-07T09:13:23;4.00;;;2.30;;
66727;SDS011;53641;44.274;19.890;2022-08-07T09:16:06;9.65;;;2.17;;
66727;SDS011;53641;44.274;19.890;2022-08-07T09:19:53;4.20;;;2.60;;
66727;SDS011;53641;44.274;19.890;2022-08-07T09:22:12;2.88;;;2.30;;
66727;SDS011;53641;44.274;19.890;2022-08-07T09:24:57;6.38;;;3.22;;
66727;SDS011;53641;44.274;19.890;2022-08-07T09:27:43;3.75;;;2.40;;
66727;SDS011;53641;44.274;19.890;2022-08-07T09:30:15;4.93;;;2.28;;
66727;SDS011;53641;44.274;19.890;2022-08-07T09:33:01;3.60;;;2.50;;
66727;SDS011;53641;44.274;19.890;2022-08-07T09:35:41;4.82;;;2.67;;
66727;SDS011;53641;44.274;19.890;2022-08-07T09:38:18;4.85;;;2.60;;
66727;SDS011;53641;44.274;19.890;2022-08-07T09:41:08;4.68;;;2.20;;
66727;SDS011;53641;44.274;19.890;2022-08-07T09:44:00;5.43;;;2.25;;
66727;SDS011;53641;44.274;19.890;2022-08-07T09:46:35;6.57;;;2.72;;
66727;SDS011;53641;44.274;19.890;2022-08-07T09:49:40;8.82;;;2.90;;
66727;SDS011;53641;44.274;19.890;2022-08-07T09:52:20;4.90;;;2.78;;
66727;SDS011;53641;44.274;19.890;2022-08-07T09:57:07;8.40;;;2.80;;
66727;SDS011;53641;44.274;19.890;2022-08-07T10:01:07;3.60;;;2.60;;
66727;SDS011;53641;44.274;19.890;2022-08-07T10:04:05;5.43;;;3.03;;
66727;SDS011;53641;44.274;19.890;2022-08-07T10:09:35;8.30;;;2.97;;
66727;SDS011;53641;44.274;19.890;2022-08-07T10:15:15;5.78;;;2.80;;
66727;SDS011;53641;44.274;19.890;2022-08-07T10:18:07;3.97;;;2.72;;
66727;SDS011;53641;44.274;19.890;2022-08-07T10:21:12;5.80;;;2.65;;
66727;SDS011;53641;44.274;19.890;2022-08-07T10:24:10;4.75;;;2.97;;
66727;SDS011;53641;44.274;19.890;2022-08-07T10:28:17;5.63;;;3.00;;
66727;SDS011;53641;44.274;19.890;2022-08-07T10:30:07;9.27;;;3.00;;
66727;SDS011;53641;44.274;19.890;2022-08-07T10:34:04;7.60;;;3.20;;
66727;SDS011;53641;44.274;19.890;2022-08-07T10:35:49;5.70;;;3.15;;
66727;SDS011;53641;44.274;19.890;2022-08-07T10:39:11;3.83;;;3.40;;
66727;SDS011;53641;44.274;19.890;2022-08-07T10:41:20;5.75;;;3.30;;
66727;SDS011;53641;44.274;19.890;2022-08-07T10:44:03;8.27;;;3.13;;
66727;SDS011;53641;44.274;19.890;2022-08-07T10:46:51;8.00;;;3.20;;
66727;SDS011;53641;44.274;19.890;2022-08-07T10:49:22;7.82;;;3.28;;
66727;SDS011;53641;44.274;19.890;2022-08-07T10:54:34;5.22;;;3.25;;
66727;SDS011;53641;44.274;19.890;2022-08-07T10:57:33;5.43;;;2.95;;
66727;SDS011;53641;44.274;19.890;2022-08-07T11:00:11;8.55;;;3.17;;
66727;SDS011;53641;44.274;19.890;2022-08-07T11:03:04;7.43;;;2.92;;
66727;SDS011;53641;44.274;19.890;2022-08-07T11:05:41;4.88;;;2.70;;
66727;SDS011;53641;44.274;19.890;2022-08-07T11:08:24;5.18;;;3.35;;
66727;SDS011;53641;44.274;19.890;2022-08-07T11:11:07;6.15;;;3.42;;
66727;SDS011;53641;44.274;19.890;2022-08-07T11:13:44;6.03;;;3.03;;
66727;SDS011;53641;44.274;19.890;2022-08-07T11:16:18;7.07;;;3.13;;
66727;SDS011;53641;44.274;19.890;2022-08-07T11:18:50;6.32;;;2.90;;
66727;SDS011;53641;44.274;19.890;2022-08-07T11:21:28;4.78;;;2.80;;
66727;SDS011;53641;44.274;19.890;2022-08-07T11:24:08;4.28;;;3.05;;
66727;SDS011;53641;44.274;19.890;2022-08-07T11:27:58;10.00;;;3.05;;
66727;SDS011;53641;44.274;19.890;2022-08-07T11:29:39;5.97;;;3.25;;
66727;SDS011;53641;44.274;19.890;2022-08-07T11:32:16;5.63;;;3.30;;
66727;SDS011;53641;44.274;19.890;2022-08-07T11:34:53;20.10;;;3.65;;
66727;SDS011;53641;44.274;19.890;2022-08-07T11:37:30;7.10;;;3.10;;
66727;SDS011;53641;44.274;19.890;2022-08-07T11:40:20;8.63;;;3.00;;
66727;SDS011;53641;44.274;19.890;2022-08-07T11:43:12;5.47;;;3.17;;
66727;SDS011;53641;44.274;19.890;2022-08-07T11:46:04;4.03;;;2.90;;
66727;SDS011;53641;44.274;19.890;2022-08-07T11:49:13;9.95;;;3.53;;
66727;SDS011;53641;44.274;19.890;2022-08-07T11:53:10;5.60;;;2.58;;
66727;SDS011;53641;44.274;19.890;2022-08-07T11:54:57;5.78;;;2.42;;
66727;SDS011;53641;44.274;19.890;2022-08-07T11:57:52;7.00;;;2.63;;
66727;SDS011;53641;44.274;19.890;2022-08-07T12:00:24;9.00;;;2.92;;
66727;SDS011;53641;44.274;19.890;2022-08-07T12:06:01;8.38;;;2.92;;
66727;SDS011;53641;44.274;19.890;2022-08-07T12:08:43;10.27;;;2.95;;
66727;SDS011;53641;44.274;19.890;2022-08-07T12:11:15;3.97;;;2.85;;
66727;SDS011;53641;44.274;19.890;2022-08-07T12:14:00;7.13;;;2.90;;
66727;SDS011;53641;44.274;19.890;2022-08-07T12:16:39;3.97;;;3.00;;
66727;SDS011;53641;44.274;19.890;2022-08-07T12:19:44;5.32;;;3.03;;
66727;SDS011;53641;44.274;19.890;2022-08-07T12:22:16;5.85;;;3.03;;
66727;SDS011;53641;44.274;19.890;2022-08-07T12:24:55;7.30;;;3.10;;
66727;SDS011;53641;44.274;19.890;2022-08-07T12:27:48;6.20;;;3.15;;
66727;SDS011;53641;44.274;19.890;2022-08-07T12:33:03;6.55;;;3.15;;
66727;SDS011;53641;44.274;19.890;2022-08-07T12:35:34;9.93;;;3.10;;
66727;SDS011;53641;44.274;19.890;2022-08-07T12:38:01;5.60;;;2.97;;
66727;SDS011;53641;44.274;19.890;2022-08-07T12:40:29;6.25;;;2.90;;
66727;SDS011;53641;44.274;19.890;2022-08-07T12:42:58;7.93;;;2.80;;
66727;SDS011;53641;44.274;19.890;2022-08-07T12:45:27;6.88;;;2.95;;
66727;SDS011;53641;44.274;19.890;2022-08-07T12:48:13;4.22;;;2.90;;
66727;SDS011;53641;44.274;19.890;2022-08-07T12:51:18;6.20;;;2.78;;
66727;SDS011;53641;44.274;19.890;2022-08-07T12:53:40;6.10;;;2.78;;
66727;SDS011;53641;44.274;19.890;2022-08-07T12:56:18;2.97;;;2.40;;
66727;SDS011;53641;44.274;19.890;2022-08-07T12:58:50;5.18;;;2.80;;
66727;SDS011;53641;44.274;19.890;2022-08-07T13:01:29;6.00;;;2.67;;
66727;SDS011;53641;44.274;19.890;2022-08-07T13:04:09;3.58;;;2.80;;
66727;SDS011;53641;44.274;19.890;2022-08-07T13:07:50;5.68;;;2.20;;
66727;SDS011;53641;44.274;19.890;2022-08-07T13:10:09;6.88;;;2.50;;
66727;SDS011;53641;44.274;19.890;2022-08-07T13:12:50;3.33;;;2.40;;
66727;SDS011;53641;44.274;19.890;2022-08-07T13:15:34;6.22;;;2.53;;
66727;SDS011;53641;44.274;19.890;2022-08-07T13:18:48;3.20;;;2.63;;
66727;SDS011;53641;44.274;19.890;2022-08-07T13:21:06;4.82;;;2.70;;
66727;SDS011;53641;44.274;19.890;2022-08-07T13:23:38;7.82;;;2.72;;
66727;SDS011;53641;44.274;19.890;2022-08-07T13:26:12;3.58;;;2.50;;
66727;SDS011;53641;44.274;19.890;2022-08-07T13:28:55;5.93;;;2.60;;
66727;SDS011;53641;44.274;19.890;2022-08-07T13:31:28;7.13;;;2.92;;
66727;SDS011;53641;44.274;19.890;2022-08-07T13:33:58;3.55;;;2.50;;
66727;SDS011;53641;44.274;19.890;2022-08-07T13:36:44;4.35;;;2.60;;
66727;SDS011;53641;44.274;19.890;2022-08-07T13:39:25;6.22;;;3.03;;
66727;SDS011;53641;44.274;19.890;2022-08-07T13:41:57;4.15;;;2.60;;
66727;SDS011;53641;44.274;19.890;2022-08-07T13:44:26;7.47;;;3.25;;
66727;SDS011;53641;44.274;19.890;2022-08-07T13:46:58;3.20;;;2.47;;
66727;SDS011;53641;44.274;19.890;2022-08-07T13:49:27;5.07;;;2.40;;
66727;SDS011;53641;44.274;19.890;2022-08-07T13:52:02;5.40;;;2.55;;
66727;SDS011;53641;44.274;19.890;2022-08-07T13:54:29;3.05;;;2.55;;
66727;SDS011;53641;44.274;19.890;2022-08-07T13:56:56;4.05;;;3.08;;
66727;SDS011;53641;44.274;19.890;2022-08-07T13:59:24;7.72;;;2.53;;
66727;SDS011;53641;44.274;19.890;2022-08-07T14:02:00;4.20;;;3.00;;
66727;SDS011;53641;44.274;19.890;2022-08-07T14:04:35;5.57;;;2.50;;
66727;SDS011;53641;44.274;19.890;2022-08-07T14:07:11;3.50;;;2.80;;
66727;SDS011;53641;44.274;19.890;2022-08-07T14:09:39;5.63;;;2.70;;
66727;SDS011;53641;44.274;19.890;2022-08-07T14:12:12;4.50;;;2.67;;
66727;SDS011;53641;44.274;19.890;2022-08-07T14:14:50;8.90;;;2.78;;
66727;SDS011;53641;44.274;19.890;2022-08-07T14:17:20;3.53;;;2.80;;
66727;SDS011;53641;44.274;19.890;2022-08-07T14:19:55;6.55;;;2.50;;
66727;SDS011;53641;44.274;19.890;2022-08-07T14:22:24;7.53;;;3.30;;
66727;SDS011;53641;44.274;19.890;2022-08-07T14:25:00;3.53;;;3.00;;
66727;SDS011;53641;44.274;19.890;2022-08-07T14:27:38;3.75;;;3.00;;
66727;SDS011;53641;44.274;19.890;2022-08-07T14:30:09;5.45;;;2.75;;
66727;SDS011;53641;44.274;19.890;2022-08-07T14:32:41;4.95;;;2.78;;
66727;SDS011;53641;44.274;19.890;2022-08-07T14:35:20;5.60;;;2.70;;
66727;SDS011;53641;44.274;19.890;2022-08-07T14:37:49;10.27;;;3.22;;
66727;SDS011;53641;44.274;19.890;2022-08-07T14:40:20;5.03;;;2.70;;
66727;SDS011;53641;44.274;19.890;2022-08-07T14:42:52;2.92;;;2.40;;
66727;SDS011;53641;44.274;19.890;2022-08-07T14:45:33;5.90;;;3.08;;
66727;SDS011;53641;44.274;19.890;2022-08-07T14:48:06;4.65;;;3.40;;
66727;SDS011;53641;44.274;19.890;2022-08-07T14:50:33;6.47;;;2.95;;
66727;SDS011;53641;44.274;19.890;2022-08-07T14:53:05;5.28;;;2.55;;
66727;SDS011;53641;44.274;19.890;2022-08-07T14:55:32;10.05;;;3.05;;
66727;SDS011;53641;44.274;19.890;2022-08-07T14:57:59;4.60;;;2.80;;
66727;SDS011;53641;44.274;19.890;2022-08-07T15:00:29;4.55;;;2.85;;
66727;SDS011;53641;44.274;19.890;2022-08-07T15:03:01;5.35;;;2.95;;
66727;SDS011;53641;44.274;19.890;2022-08-07T15:05:30;4.65;;;2.72;;
66727;SDS011;53641;44.274;19.890;2022-08-07T15:07:56;5.88;;;2.83;;
66727;SDS011;53641;44.274;19.890;2022-08-07T15:10:24;5.15;;;2.80;;
66727;SDS011;53641;44.274;19.890;2022-08-07T15:12:52;5.50;;;2.75;;
66727;SDS011;53641;44.274;19.890;2022-08-07T15:15:37;4.95;;;3.17;;
66727;SDS011;53641;44.274;19.890;2022-08-07T15:18:07;4.55;;;2.60;;
66727;SDS011;53641;44.274;19.890;2022-08-07T15:20:37;5.70;;;3.03;;
66727;SDS011;53641;44.274;19.890;2022-08-07T15:23:06;3.50;;;2.90;;
66727;SDS011;53641;44.274;19.890;2022-08-07T15:25:36;3.78;;;2.92;;
66727;SDS011;53641;44.274;19.890;2022-08-07T15:28:05;3.80;;;2.72;;
66727;SDS011;53641;44.274;19.890;2022-08-07T15:30:32;3.72;;;2.38;;